sensor_id;sensor_type;location;lat;lon;timestamp;P1;durP1;ratioP1;P2;durP2;ratioP2
51660;SDS011;37741;49.748;8.490;2023-04-06T00:01:07;4.35;;;2.78;;
51660;SDS011;37741;49.748;8.490;2023-04-06T00:03:33;4.35;;;2.70;;
51660;SDS011;37741;49.748;8.490;2023-04-06T00:05:59;4.15;;;2.80;;
51660;SDS011;37741;49.748;8.490;2023-04-06T00:08:25;6.15;;;2.83;;
51660;SDS011;37741;49.748;8.490;2023-04-06T00:10:51;5.07;;;3.22;;
51660;SDS011;37741;49.748;8.490;2023-04-06T00:13:17;6.10;;;3.85;;
51660;SDS011;37741;49.748;8.490;2023-04-06T00:15:43;4.28;;;2.88;;
51660;SDS011;37741;49.748;8.490;2023-04-06T00:18:08;5.93;;;2.92;;
51660;SDS011;37741;49.748;8.490;2023-04-06T00:20:34;6.40;;;3.00;;
51660;SDS011;37741;49.748;8.490;2023-04-06T00:23:00;5.85;;;3.35;;
51660;SDS011;37741;49.748;8.490;2023-04-06T00:25:25;4.95;;;2.85;;
51660;SDS011;37741;49.748;8.490;2023-04-06T00:27:51;7.63;;;3.30;;
51660;SDS011;37741;49.748;8.490;2023-04-06T00:30:17;5.38;;;3.45;;
51660;SDS011;37741;49.748;8.490;2023-04-06T00:32:42;6.57;;;3.40;;
51660;SDS011;37741;49.748;8.490;2023-04-06T00:35:08;5.13;;;3.60;;
51660;SDS011;37741;49.748;8.490;2023-04-06T00:37:34;6.75;;;4.03;;
51660;SDS011;37741;49.748;8.490;2023-04-06T00:40:00;7.85;;;3.15;;
51660;SDS011;37741;49.748;8.490;2023-04-06T00:42:25;5.05;;;2.92;;
51660;SDS011;37741;49.748;8.490;2023-04-06T00:44:54;5.25;;;3.20;;
51660;SDS011;37741;49.748;8.490;2023-04-06T00:47:21;5.93;;;3.25;;
51660;SDS011;37741;49.748;8.490;2023-04-06T00:49:48;7.20;;;3.67;;
51660;SDS011;37741;49.748;8.490;2023-04-06T00:52:14;7.45;;;3.72;;
51660;SDS011;37741;49.748;8.490;2023-04-06T00:54:40;3.97;;;2.88;;
51660;SDS011;37741;49.748;8.490;2023-04-06T00:57:06;7.38;;;3.25;;
51660;SDS011;37741;49.748;8.490;2023-04-06T00:59:31;6.18;;;3.33;;
51660;SDS011;37741;49.748;8.490;2023-04-06T01:01:57;6.22;;;4.20;;
51660;SDS011;37741;49.748;8.490;2023-04-06T01:04:23;5.32;;;3.40;;
51660;SDS011;37741;49.748;8.490;2023-04-06T01:06:49;6.15;;;3.80;;
51660;SDS011;37741;49.748;8.490;2023-04-06T01:09:16;4.55;;;3.05;;
51660;SDS011;37741;49.748;8.490;2023-04-06T01:11:41;5.97;;;3.47;;
51660;SDS011;37741;49.748;8.490;2023-04-06T01:14:07;5.13;;;3.22;;
51660;SDS011;37741;49.748;8.490;2023-04-06T01:16:33;7.13;;;3.78;;
51660;SDS011;37741;49.748;8.490;2023-04-06T01:18:59;8.32;;;4.03;;
51660;SDS011;37741;49.748;8.490;2023-04-06T01:21:25;4.95;;;3.22;;
51660;SDS011;37741;49.748;8.490;2023-04-06T01:23:51;7.72;;;3.53;;
51660;SDS011;37741;49.748;8.490;2023-04-06T01:26:17;6.47;;;3.85;;
51660;SDS011;37741;49.748;8.490;2023-04-06T01:28:42;6.07;;;3.53;;
51660;SDS011;37741;49.748;8.490;2023-04-06T01:31:09;5.45;;;3.47;;
51660;SDS011;37741;49.748;8.490;2023-04-06T01:33:35;6.43;;;3.60;;
51660;SDS011;37741;49.748;8.490;2023-04-06T01:36:02;7.45;;;3.88;;
51660;SDS011;37741;49.748;8.490;2023-04-06T01:38:28;5.88;;;3.40;;
51660;SDS011;37741;49.748;8.490;2023-04-06T01:40:54;6.03;;;3.95;;
51660;SDS011;37741;49.748;8.490;2023-04-06T01:43:20;6.18;;;4.00;;
51660;SDS011;37741;49.748;8.490;2023-04-06T01:45:46;5.95;;;3.42;;
51660;SDS011;37741;49.748;8.490;2023-04-06T01:48:12;4.88;;;3.30;;
51660;SDS011;37741;49.748;8.490;2023-04-06T01:50:37;6.60;;;3.60;;
51660;SDS011;37741;49.748;8.490;2023-04-06T01:53:03;5.38;;;3.67;;
51660;SDS011;37741;49.748;8.490;2023-04-06T01:55:28;5.22;;;3.70;;
51660;SDS011;37741;49.748;8.490;2023-04-06T01:57:54;6.43;;;4.00;;
51660;SDS011;37741;49.748;8.490;2023-04-06T02:00:20;6.43;;;3.38;;
51660;SDS011;37741;49.748;8.490;2023-04-06T02:02:46;4.65;;;3.45;;
51660;SDS011;37741;49.748;8.490;2023-04-06T02:05:12;5.47;;;3.90;;
51660;SDS011;37741;49.748;8.490;2023-04-06T02:07:37;5.43;;;3.17;;
51660;SDS011;37741;49.748;8.490;2023-04-06T02:10:03;5.07;;;3.63;;
51660;SDS011;37741;49.748;8.490;2023-04-06T02:12:29;4.38;;;3.35;;
51660;SDS011;37741;49.748;8.490;2023-04-06T02:14:55;6.43;;;3.65;;
51660;SDS011;37741;49.748;8.490;2023-04-06T02:17:20;4.55;;;3.03;;
51660;SDS011;37741;49.748;8.490;2023-04-06T02:19:46;5.30;;;3.17;;
51660;SDS011;37741;49.748;8.490;2023-04-06T02:22:12;5.00;;;3.58;;
51660;SDS011;37741;49.748;8.490;2023-04-06T02:24:37;6.93;;;3.70;;
51660;SDS011;37741;49.748;8.490;2023-04-06T02:27:03;4.95;;;2.70;;
51660;SDS011;37741;49.748;8.490;2023-04-06T02:29:29;5.22;;;3.50;;
51660;SDS011;37741;49.748;8.490;2023-04-06T02:31:55;5.25;;;3.50;;
51660;SDS011;37741;49.748;8.490;2023-04-06T02:34:20;5.72;;;3.03;;
51660;SDS011;37741;49.748;8.490;2023-04-06T02:36:46;5.97;;;3.83;;
51660;SDS011;37741;49.748;8.490;2023-04-06T02:39:12;4.45;;;3.17;;
51660;SDS011;37741;49.748;8.490;2023-04-06T02:41:38;5.43;;;3.65;;
51660;SDS011;37741;49.748;8.490;2023-04-06T02:44:06;5.97;;;3.63;;
51660;SDS011;37741;49.748;8.490;2023-04-06T02:46:33;6.35;;;3.70;;
51660;SDS011;37741;49.748;8.490;2023-04-06T02:48:59;5.32;;;3.72;;
51660;SDS011;37741;49.748;8.490;2023-04-06T02:51:25;6.60;;;3.60;;
51660;SDS011;37741;49.748;8.490;2023-04-06T02:53:52;4.60;;;3.35;;
51660;SDS011;37741;49.748;8.490;2023-04-06T02:56:17;4.95;;;3.92;;
51660;SDS011;37741;49.748;8.490;2023-04-06T02:58:44;6.85;;;3.92;;
51660;SDS011;37741;49.748;8.490;2023-04-06T03:01:09;5.78;;;3.45;;
51660;SDS011;37741;49.748;8.490;2023-04-06T03:03:35;6.78;;;3.80;;
51660;SDS011;37741;49.748;8.490;2023-04-06T03:06:01;5.60;;;3.75;;
51660;SDS011;37741;49.748;8.490;2023-04-06T03:08:26;4.95;;;3.83;;
51660;SDS011;37741;49.748;8.490;2023-04-06T03:10:52;7.15;;;3.53;;
51660;SDS011;37741;49.748;8.490;2023-04-06T03:13:17;6.45;;;3.95;;
51660;SDS011;37741;49.748;8.490;2023-04-06T03:15:43;6.45;;;4.10;;
51660;SDS011;37741;49.748;8.490;2023-04-06T03:18:09;6.00;;;4.18;;
51660;SDS011;37741;49.748;8.490;2023-04-06T03:20:35;6.70;;;3.67;;
51660;SDS011;37741;49.748;8.490;2023-04-06T03:23:00;8.38;;;4.05;;
51660;SDS011;37741;49.748;8.490;2023-04-06T03:25:26;5.15;;;3.85;;
51660;SDS011;37741;49.748;8.490;2023-04-06T03:27:52;6.93;;;3.85;;
51660;SDS011;37741;49.748;8.490;2023-04-06T03:30:17;6.47;;;4.25;;
51660;SDS011;37741;49.748;8.490;2023-04-06T03:32:46;6.25;;;3.33;;
51660;SDS011;37741;49.748;8.490;2023-04-06T03:35:12;6.95;;;3.70;;
51660;SDS011;37741;49.748;8.490;2023-04-06T03:37:37;6.32;;;3.85;;
51660;SDS011;37741;49.748;8.490;2023-04-06T03:40:04;6.72;;;3.67;;
51660;SDS011;37741;49.748;8.490;2023-04-06T03:42:30;8.32;;;4.03;;
51660;SDS011;37741;49.748;8.490;2023-04-06T03:44:57;6.43;;;3.90;;
51660;SDS011;37741;49.748;8.490;2023-04-06T03:47:23;5.72;;;3.80;;
51660;SDS011;37741;49.748;8.490;2023-04-06T03:49:50;6.82;;;3.63;;
51660;SDS011;37741;49.748;8.490;2023-04-06T03:52:15;5.97;;;3.60;;
51660;SDS011;37741;49.748;8.490;2023-04-06T03:54:41;7.53;;;3.83;;
51660;SDS011;37741;49.748;8.490;2023-04-06T03:57:07;5.95;;;3.70;;
51660;SDS011;37741;49.748;8.490;2023-04-06T03:59:32;8.15;;;3.45;;
51660;SDS011;37741;49.748;8.490;2023-04-06T04:01:58;6.40;;;4.00;;
51660;SDS011;37741;49.748;8.490;2023-04-06T04:04:24;5.60;;;3.75;;
51660;SDS011;37741;49.748;8.490;2023-04-06T04:06:49;5.18;;;3.72;;
51660;SDS011;37741;49.748;8.490;2023-04-06T04:09:15;6.05;;;3.60;;
51660;SDS011;37741;49.748;8.490;2023-04-06T04:11:42;6.28;;;4.18;;
51660;SDS011;37741;49.748;8.490;2023-04-06T04:14:07;7.13;;;3.80;;
51660;SDS011;37741;49.748;8.490;2023-04-06T04:16:33;5.22;;;3.67;;
51660;SDS011;37741;49.748;8.490;2023-04-06T04:18:59;6.45;;;4.07;;
51660;SDS011;37741;49.748;8.490;2023-04-06T04:21:24;6.15;;;3.70;;
51660;SDS011;37741;49.748;8.490;2023-04-06T04:23:50;7.85;;;4.05;;
51660;SDS011;37741;49.748;8.490;2023-04-06T04:26:17;5.35;;;3.70;;
51660;SDS011;37741;49.748;8.490;2023-04-06T04:28:43;5.65;;;4.13;;
51660;SDS011;37741;49.748;8.490;2023-04-06T04:31:09;5.57;;;3.72;;
51660;SDS011;37741;49.748;8.490;2023-04-06T04:33:35;5.38;;;4.00;;
51660;SDS011;37741;49.748;8.490;2023-04-06T04:36:01;6.28;;;3.97;;
51660;SDS011;37741;49.748;8.490;2023-04-06T04:38:26;8.27;;;3.90;;
51660;SDS011;37741;49.748;8.490;2023-04-06T04:40:52;6.47;;;4.40;;
51660;SDS011;37741;49.748;8.490;2023-04-06T04:43:17;5.32;;;4.07;;
51660;SDS011;37741;49.748;8.490;2023-04-06T04:45:43;6.18;;;4.15;;
51660;SDS011;37741;49.748;8.490;2023-04-06T04:48:09;7.50;;;4.50;;
51660;SDS011;37741;49.748;8.490;2023-04-06T04:50:34;6.25;;;4.43;;
51660;SDS011;37741;49.748;8.490;2023-04-06T04:53:00;8.52;;;4.63;;
51660;SDS011;37741;49.748;8.490;2023-04-06T04:55:26;6.05;;;4.05;;
51660;SDS011;37741;49.748;8.490;2023-04-06T04:57:52;5.80;;;4.68;;
51660;SDS011;37741;49.748;8.490;2023-04-06T05:00:18;9.98;;;4.68;;
51660;SDS011;37741;49.748;8.490;2023-04-06T05:02:44;6.50;;;4.72;;
51660;SDS011;37741;49.748;8.490;2023-04-06T05:05:10;7.00;;;4.88;;
51660;SDS011;37741;49.748;8.490;2023-04-06T05:07:36;6.03;;;4.70;;
51660;SDS011;37741;49.748;8.490;2023-04-06T05:10:01;6.40;;;4.57;;
51660;SDS011;37741;49.748;8.490;2023-04-06T05:12:27;10.15;;;5.25;;
51660;SDS011;37741;49.748;8.490;2023-04-06T05:14:54;9.27;;;5.03;;
51660;SDS011;37741;49.748;8.490;2023-04-06T05:17:20;9.20;;;4.97;;
51660;SDS011;37741;49.748;8.490;2023-04-06T05:19:48;7.38;;;5.50;;
51660;SDS011;37741;49.748;8.490;2023-04-06T05:22:17;7.82;;;5.10;;
51660;SDS011;37741;49.748;8.490;2023-04-06T05:24:46;6.03;;;4.40;;
51660;SDS011;37741;49.748;8.490;2023-04-06T05:27:11;9.93;;;4.43;;
51660;SDS011;37741;49.748;8.490;2023-04-06T05:29:37;6.20;;;4.78;;
51660;SDS011;37741;49.748;8.490;2023-04-06T05:32:02;7.15;;;5.15;;
51660;SDS011;37741;49.748;8.490;2023-04-06T05:34:28;6.00;;;4.72;;
51660;SDS011;37741;49.748;8.490;2023-04-06T05:36:54;7.35;;;4.60;;
51660;SDS011;37741;49.748;8.490;2023-04-06T05:39:20;6.13;;;4.65;;
51660;SDS011;37741;49.748;8.490;2023-04-06T05:41:45;6.93;;;4.40;;
51660;SDS011;37741;49.748;8.490;2023-04-06T05:44:11;7.22;;;5.15;;
51660;SDS011;37741;49.748;8.490;2023-04-06T05:46:37;6.88;;;4.15;;
51660;SDS011;37741;49.748;8.490;2023-04-06T05:49:02;6.00;;;4.88;;
51660;SDS011;37741;49.748;8.490;2023-04-06T05:51:28;6.00;;;4.38;;
51660;SDS011;37741;49.748;8.490;2023-04-06T05:53:54;7.25;;;4.85;;
51660;SDS011;37741;49.748;8.490;2023-04-06T05:56:20;8.30;;;5.05;;
51660;SDS011;37741;49.748;8.490;2023-04-06T05:58:45;7.32;;;4.90;;
51660;SDS011;37741;49.748;8.490;2023-04-06T06:01:11;6.63;;;4.55;;
51660;SDS011;37741;49.748;8.490;2023-04-06T06:03:37;7.70;;;4.45;;
51660;SDS011;37741;49.748;8.490;2023-04-06T06:06:03;6.32;;;4.50;;
51660;SDS011;37741;49.748;8.490;2023-04-06T06:08:29;7.50;;;4.57;;
51660;SDS011;37741;49.748;8.490;2023-04-06T06:10:55;6.35;;;4.40;;
51660;SDS011;37741;49.748;8.490;2023-04-06T06:13:22;8.13;;;4.40;;
51660;SDS011;37741;49.748;8.490;2023-04-06T06:15:48;5.75;;;3.95;;
51660;SDS011;37741;49.748;8.490;2023-04-06T06:18:14;8.18;;;4.47;;
51660;SDS011;37741;49.748;8.490;2023-04-06T06:20:40;6.93;;;4.65;;
51660;SDS011;37741;49.748;8.490;2023-04-06T06:23:06;7.43;;;4.63;;
51660;SDS011;37741;49.748;8.490;2023-04-06T06:25:32;7.20;;;4.38;;
51660;SDS011;37741;49.748;8.490;2023-04-06T06:27:58;7.45;;;4.60;;
51660;SDS011;37741;49.748;8.490;2023-04-06T06:30:24;10.63;;;5.80;;
51660;SDS011;37741;49.748;8.490;2023-04-06T06:32:50;7.05;;;4.40;;
51660;SDS011;37741;49.748;8.490;2023-04-06T06:35:16;7.43;;;5.10;;
51660;SDS011;37741;49.748;8.490;2023-04-06T06:37:42;6.63;;;4.72;;
51660;SDS011;37741;49.748;8.490;2023-04-06T06:40:11;5.88;;;4.47;;
51660;SDS011;37741;49.748;8.490;2023-04-06T06:42:38;6.68;;;5.05;;
51660;SDS011;37741;49.748;8.490;2023-04-06T06:45:05;6.75;;;4.68;;
51660;SDS011;37741;49.748;8.490;2023-04-06T06:47:32;6.05;;;4.57;;
51660;SDS011;37741;49.748;8.490;2023-04-06T06:49:57;6.90;;;4.63;;
51660;SDS011;37741;49.748;8.490;2023-04-06T06:52:23;7.47;;;5.47;;
51660;SDS011;37741;49.748;8.490;2023-04-06T06:54:49;7.65;;;5.25;;
51660;SDS011;37741;49.748;8.490;2023-04-06T06:57:15;7.53;;;4.95;;
51660;SDS011;37741;49.748;8.490;2023-04-06T06:59:40;9.30;;;4.78;;
51660;SDS011;37741;49.748;8.490;2023-04-06T07:02:06;7.07;;;5.40;;
51660;SDS011;37741;49.748;8.490;2023-04-06T07:04:32;8.48;;;5.43;;
51660;SDS011;37741;49.748;8.490;2023-04-06T07:06:57;5.85;;;4.47;;
51660;SDS011;37741;49.748;8.490;2023-04-06T07:09:23;8.95;;;6.15;;
51660;SDS011;37741;49.748;8.490;2023-04-06T07:11:48;6.38;;;4.70;;
51660;SDS011;37741;49.748;8.490;2023-04-06T07:14:15;6.40;;;4.60;;
51660;SDS011;37741;49.748;8.490;2023-04-06T07:16:41;6.93;;;5.13;;
51660;SDS011;37741;49.748;8.490;2023-04-06T07:19:07;7.38;;;5.35;;
51660;SDS011;37741;49.748;8.490;2023-04-06T07:21:34;8.73;;;5.50;;
51660;SDS011;37741;49.748;8.490;2023-04-06T07:24:00;8.93;;;6.00;;
51660;SDS011;37741;49.748;8.490;2023-04-06T07:26:26;8.90;;;5.47;;
51660;SDS011;37741;49.748;8.490;2023-04-06T07:28:52;5.78;;;4.75;;
51660;SDS011;37741;49.748;8.490;2023-04-06T07:31:18;6.75;;;5.30;;
51660;SDS011;37741;49.748;8.490;2023-04-06T07:33:44;7.45;;;5.20;;
51660;SDS011;37741;49.748;8.490;2023-04-06T07:36:09;9.68;;;5.43;;
51660;SDS011;37741;49.748;8.490;2023-04-06T07:38:35;7.68;;;5.43;;
51660;SDS011;37741;49.748;8.490;2023-04-06T07:41:01;7.35;;;5.38;;
51660;SDS011;37741;49.748;8.490;2023-04-06T07:43:28;8.50;;;5.07;;
51660;SDS011;37741;49.748;8.490;2023-04-06T07:45:55;16.10;;;5.97;;
51660;SDS011;37741;49.748;8.490;2023-04-06T07:48:22;11.50;;;7.03;;
51660;SDS011;37741;49.748;8.490;2023-04-06T07:50:48;12.70;;;6.85;;
51660;SDS011;37741;49.748;8.490;2023-04-06T07:53:13;13.13;;;6.93;;
51660;SDS011;37741;49.748;8.490;2023-04-06T07:55:39;15.95;;;6.97;;
51660;SDS011;37741;49.748;8.490;2023-04-06T07:58:05;16.23;;;7.57;;
51660;SDS011;37741;49.748;8.490;2023-04-06T08:00:31;15.05;;;6.35;;
51660;SDS011;37741;49.748;8.490;2023-04-06T08:02:57;9.18;;;6.10;;
51660;SDS011;37741;49.748;8.490;2023-04-06T08:05:22;9.95;;;6.53;;
51660;SDS011;37741;49.748;8.490;2023-04-06T08:07:48;12.68;;;7.13;;
51660;SDS011;37741;49.748;8.490;2023-04-06T08:10:14;13.98;;;6.57;;
51660;SDS011;37741;49.748;8.490;2023-04-06T08:12:39;10.25;;;7.18;;
51660;SDS011;37741;49.748;8.490;2023-04-06T08:15:05;18.63;;;7.75;;
51660;SDS011;37741;49.748;8.490;2023-04-06T08:17:31;12.65;;;6.63;;
51660;SDS011;37741;49.748;8.490;2023-04-06T08:19:58;13.32;;;6.80;;
51660;SDS011;37741;49.748;8.490;2023-04-06T08:22:24;8.30;;;6.32;;
51660;SDS011;37741;49.748;8.490;2023-04-06T08:24:50;10.93;;;6.40;;
51660;SDS011;37741;49.748;8.490;2023-04-06T08:27:16;9.75;;;6.70;;
51660;SDS011;37741;49.748;8.490;2023-04-06T08:29:41;11.10;;;6.93;;
51660;SDS011;37741;49.748;8.490;2023-04-06T08:32:07;17.02;;;8.52;;
51660;SDS011;37741;49.748;8.490;2023-04-06T08:34:33;14.50;;;9.35;;
51660;SDS011;37741;49.748;8.490;2023-04-06T08:36:58;13.93;;;8.68;;
51660;SDS011;37741;49.748;8.490;2023-04-06T08:39:25;12.57;;;6.90;;
51660;SDS011;37741;49.748;8.490;2023-04-06T08:41:52;9.02;;;6.53;;
51660;SDS011;37741;49.748;8.490;2023-04-06T08:44:22;11.55;;;6.88;;
51660;SDS011;37741;49.748;8.490;2023-04-06T08:46:47;8.57;;;7.20;;
51660;SDS011;37741;49.748;8.490;2023-04-06T08:49:15;10.35;;;7.65;;
51660;SDS011;37741;49.748;8.490;2023-04-06T08:51:41;14.20;;;8.00;;
51660;SDS011;37741;49.748;8.490;2023-04-06T08:54:07;14.20;;;7.40;;
51660;SDS011;37741;49.748;8.490;2023-04-06T08:56:36;28.63;;;9.05;;
51660;SDS011;37741;49.748;8.490;2023-04-06T08:59:03;14.88;;;7.30;;
51660;SDS011;37741;49.748;8.490;2023-04-06T09:01:30;12.32;;;7.22;;
51660;SDS011;37741;49.748;8.490;2023-04-06T09:03:59;19.05;;;7.80;;
51660;SDS011;37741;49.748;8.490;2023-04-06T09:06:25;13.07;;;6.63;;
51660;SDS011;37741;49.748;8.490;2023-04-06T09:08:52;14.45;;;8.00;;
51660;SDS011;37741;49.748;8.490;2023-04-06T09:11:18;14.43;;;8.50;;
51660;SDS011;37741;49.748;8.490;2023-04-06T09:13:45;11.05;;;7.40;;
51660;SDS011;37741;49.748;8.490;2023-04-06T09:16:15;13.52;;;7.35;;
51660;SDS011;37741;49.748;8.490;2023-04-06T09:18:42;12.30;;;7.60;;
51660;SDS011;37741;49.748;8.490;2023-04-06T09:21:08;16.13;;;7.85;;
51660;SDS011;37741;49.748;8.490;2023-04-06T09:23:34;12.95;;;7.47;;
51660;SDS011;37741;49.748;8.490;2023-04-06T09:31:31;11.02;;;7.50;;
51660;SDS011;37741;49.748;8.490;2023-04-06T09:33:59;12.43;;;7.57;;
51660;SDS011;37741;49.748;8.490;2023-04-06T09:36:30;14.30;;;9.60;;
51660;SDS011;37741;49.748;8.490;2023-04-06T09:38:58;19.13;;;9.18;;
51660;SDS011;37741;49.748;8.490;2023-04-06T09:41:27;14.40;;;8.50;;
51660;SDS011;37741;49.748;8.490;2023-04-06T09:44:02;19.02;;;9.13;;
51660;SDS011;37741;49.748;8.490;2023-04-06T09:46:31;32.65;;;10.52;;
51660;SDS011;37741;49.748;8.490;2023-04-06T09:48:59;16.50;;;7.22;;
51660;SDS011;37741;49.748;8.490;2023-04-06T09:51:30;15.30;;;8.00;;
51660;SDS011;37741;49.748;8.490;2023-04-06T09:53:57;24.10;;;9.82;;
51660;SDS011;37741;49.748;8.490;2023-04-06T09:56:28;16.88;;;8.27;;
51660;SDS011;37741;49.748;8.490;2023-04-06T09:58:58;12.35;;;8.52;;
51660;SDS011;37741;49.748;8.490;2023-04-06T10:01:30;16.02;;;8.70;;
51660;SDS011;37741;49.748;8.490;2023-04-06T10:04:09;15.05;;;8.02;;
51660;SDS011;37741;49.748;8.490;2023-04-06T10:06:38;16.63;;;9.57;;
51660;SDS011;37741;49.748;8.490;2023-04-06T10:09:04;13.50;;;8.35;;
51660;SDS011;37741;49.748;8.490;2023-04-06T10:11:33;13.77;;;8.43;;
51660;SDS011;37741;49.748;8.490;2023-04-06T10:13:59;12.05;;;8.57;;
51660;SDS011;37741;49.748;8.490;2023-04-06T10:16:26;13.52;;;7.50;;
51660;SDS011;37741;49.748;8.490;2023-04-06T10:18:56;11.25;;;7.45;;
51660;SDS011;37741;49.748;8.490;2023-04-06T10:21:34;12.23;;;8.13;;
51660;SDS011;37741;49.748;8.490;2023-04-06T10:24:02;14.20;;;7.68;;
51660;SDS011;37741;49.748;8.490;2023-04-06T10:26:35;13.43;;;7.55;;
51660;SDS011;37741;49.748;8.490;2023-04-06T10:29:04;12.00;;;7.82;;
51660;SDS011;37741;49.748;8.490;2023-04-06T10:31:30;11.90;;;7.88;;
51660;SDS011;37741;49.748;8.490;2023-04-06T10:33:57;10.95;;;7.00;;
51660;SDS011;37741;49.748;8.490;2023-04-06T10:36:33;13.18;;;7.93;;
51660;SDS011;37741;49.748;8.490;2023-04-06T10:39:03;12.13;;;7.55;;
51660;SDS011;37741;49.748;8.490;2023-04-06T10:41:34;13.10;;;8.23;;
51660;SDS011;37741;49.748;8.490;2023-04-06T10:44:07;12.43;;;8.40;;
51660;SDS011;37741;49.748;8.490;2023-04-06T10:46:33;12.43;;;7.85;;
51660;SDS011;37741;49.748;8.490;2023-04-06T10:49:11;16.15;;;8.50;;
51660;SDS011;37741;49.748;8.490;2023-04-06T10:51:38;13.32;;;7.28;;
51660;SDS011;37741;49.748;8.490;2023-04-06T10:54:04;10.82;;;7.38;;
51660;SDS011;37741;49.748;8.490;2023-04-06T10:56:31;11.35;;;7.63;;
51660;SDS011;37741;49.748;8.490;2023-04-06T10:59:01;12.00;;;7.72;;
51660;SDS011;37741;49.748;8.490;2023-04-06T11:01:27;12.68;;;8.52;;
51660;SDS011;37741;49.748;8.490;2023-04-06T11:03:53;14.45;;;9.00;;
51660;SDS011;37741;49.748;8.490;2023-04-06T11:06:25;11.25;;;7.25;;
51660;SDS011;37741;49.748;8.490;2023-04-06T11:08:52;8.80;;;6.60;;
51660;SDS011;37741;49.748;8.490;2023-04-06T11:11:20;11.25;;;7.53;;
51660;SDS011;37741;49.748;8.490;2023-04-06T11:16:18;11.30;;;7.57;;
51660;SDS011;37741;49.748;8.490;2023-04-06T11:18:55;12.90;;;7.85;;
51660;SDS011;37741;49.748;8.490;2023-04-06T11:21:35;13.00;;;7.00;;
51660;SDS011;37741;49.748;8.490;2023-04-06T11:24:08;11.02;;;6.95;;
51660;SDS011;37741;49.748;8.490;2023-04-06T11:26:42;11.20;;;7.88;;
51660;SDS011;37741;49.748;8.490;2023-04-06T11:29:10;11.43;;;6.97;;
51660;SDS011;37741;49.748;8.490;2023-04-06T11:31:38;10.02;;;7.50;;
51660;SDS011;37741;49.748;8.490;2023-04-06T11:34:11;12.30;;;7.28;;
51660;SDS011;37741;49.748;8.490;2023-04-06T11:36:42;11.70;;;7.47;;
51660;SDS011;37741;49.748;8.490;2023-04-06T11:39:09;12.07;;;7.30;;
51660;SDS011;37741;49.748;8.490;2023-04-06T11:41:35;11.68;;;7.70;;
51660;SDS011;37741;49.748;8.490;2023-04-06T11:44:01;11.43;;;7.65;;
51660;SDS011;37741;49.748;8.490;2023-04-06T11:46:30;11.98;;;8.10;;
51660;SDS011;37741;49.748;8.490;2023-04-06T11:48:59;11.25;;;7.63;;
51660;SDS011;37741;49.748;8.490;2023-04-06T11:51:25;9.40;;;7.05;;
51660;SDS011;37741;49.748;8.490;2023-04-06T11:53:52;11.45;;;7.40;;
51660;SDS011;37741;49.748;8.490;2023-04-06T11:56:27;23.02;;;7.95;;
51660;SDS011;37741;49.748;8.490;2023-04-06T11:58:54;9.63;;;6.55;;
51660;SDS011;37741;49.748;8.490;2023-04-06T12:01:22;10.52;;;6.93;;
51660;SDS011;37741;49.748;8.490;2023-04-06T12:03:48;11.20;;;7.28;;
51660;SDS011;37741;49.748;8.490;2023-04-06T12:06:15;10.48;;;6.82;;
51660;SDS011;37741;49.748;8.490;2023-04-06T12:08:40;10.57;;;6.78;;
51660;SDS011;37741;49.748;8.490;2023-04-06T12:11:06;10.20;;;6.47;;
51660;SDS011;37741;49.748;8.490;2023-04-06T12:13:32;9.35;;;6.75;;
51660;SDS011;37741;49.748;8.490;2023-04-06T12:15:57;9.00;;;6.32;;
51660;SDS011;37741;49.748;8.490;2023-04-06T12:18:23;7.95;;;6.35;;
51660;SDS011;37741;49.748;8.490;2023-04-06T12:20:50;11.13;;;6.30;;
51660;SDS011;37741;49.748;8.490;2023-04-06T12:23:16;9.30;;;6.70;;
51660;SDS011;37741;49.748;8.490;2023-04-06T12:25:42;7.32;;;5.88;;
51660;SDS011;37741;49.748;8.490;2023-04-06T12:28:08;11.57;;;6.88;;
51660;SDS011;37741;49.748;8.490;2023-04-06T12:30:34;9.00;;;6.88;;
51660;SDS011;37741;49.748;8.490;2023-04-06T12:33:00;10.05;;;6.47;;
51660;SDS011;37741;49.748;8.490;2023-04-06T12:35:26;8.13;;;5.88;;
51660;SDS011;37741;49.748;8.490;2023-04-06T12:37:52;9.40;;;5.72;;
51660;SDS011;37741;49.748;8.490;2023-04-06T12:40:18;9.40;;;6.40;;
51660;SDS011;37741;49.748;8.490;2023-04-06T12:42:43;8.35;;;6.15;;
51660;SDS011;37741;49.748;8.490;2023-04-06T12:45:11;9.05;;;5.63;;
51660;SDS011;37741;49.748;8.490;2023-04-06T12:47:36;9.13;;;6.50;;
51660;SDS011;37741;49.748;8.490;2023-04-06T12:50:03;8.57;;;6.15;;
51660;SDS011;37741;49.748;8.490;2023-04-06T12:52:32;9.80;;;6.10;;
51660;SDS011;37741;49.748;8.490;2023-04-06T12:55:00;8.40;;;6.13;;
51660;SDS011;37741;49.748;8.490;2023-04-06T12:57:26;8.90;;;5.47;;
51660;SDS011;37741;49.748;8.490;2023-04-06T12:59:52;9.30;;;5.80;;
51660;SDS011;37741;49.748;8.490;2023-04-06T13:02:18;9.73;;;6.03;;
51660;SDS011;37741;49.748;8.490;2023-04-06T13:04:45;9.68;;;6.07;;
51660;SDS011;37741;49.748;8.490;2023-04-06T13:07:11;9.88;;;6.25;;
51660;SDS011;37741;49.748;8.490;2023-04-06T13:09:36;8.77;;;5.78;;
51660;SDS011;37741;49.748;8.490;2023-04-06T13:12:02;9.50;;;5.47;;
51660;SDS011;37741;49.748;8.490;2023-04-06T13:14:28;11.45;;;6.45;;
51660;SDS011;37741;49.748;8.490;2023-04-06T13:16:53;13.25;;;5.63;;
51660;SDS011;37741;49.748;8.490;2023-04-06T13:19:19;10.32;;;6.03;;
51660;SDS011;37741;49.748;8.490;2023-04-06T13:21:45;7.88;;;5.88;;
51660;SDS011;37741;49.748;8.490;2023-04-06T13:24:11;9.35;;;5.60;;
51660;SDS011;37741;49.748;8.490;2023-04-06T13:26:36;8.25;;;5.47;;
51660;SDS011;37741;49.748;8.490;2023-04-06T13:29:02;9.70;;;5.63;;
51660;SDS011;37741;49.748;8.490;2023-04-06T13:31:28;8.32;;;5.80;;
51660;SDS011;37741;49.748;8.490;2023-04-06T13:33:54;8.02;;;6.28;;
51660;SDS011;37741;49.748;8.490;2023-04-06T13:36:20;8.73;;;5.90;;
51660;SDS011;37741;49.748;8.490;2023-04-06T13:38:47;7.90;;;6.00;;
51660;SDS011;37741;49.748;8.490;2023-04-06T13:41:22;10.85;;;6.85;;
51660;SDS011;37741;49.748;8.490;2023-04-06T13:43:50;10.13;;;5.85;;
51660;SDS011;37741;49.748;8.490;2023-04-06T13:46:15;8.45;;;7.00;;
51660;SDS011;37741;49.748;8.490;2023-04-06T13:48:42;8.75;;;6.38;;
51660;SDS011;37741;49.748;8.490;2023-04-06T13:51:09;9.15;;;5.72;;
51660;SDS011;37741;49.748;8.490;2023-04-06T13:53:35;8.32;;;5.88;;
51660;SDS011;37741;49.748;8.490;2023-04-06T13:56:00;8.10;;;5.93;;
51660;SDS011;37741;49.748;8.490;2023-04-06T13:58:26;8.60;;;5.82;;
51660;SDS011;37741;49.748;8.490;2023-04-06T14:00:52;8.55;;;5.65;;
51660;SDS011;37741;49.748;8.490;2023-04-06T14:03:17;9.65;;;6.00;;
51660;SDS011;37741;49.748;8.490;2023-04-06T14:05:46;10.15;;;6.18;;
51660;SDS011;37741;49.748;8.490;2023-04-06T14:08:12;9.30;;;6.10;;
51660;SDS011;37741;49.748;8.490;2023-04-06T14:10:38;8.30;;;5.80;;
51660;SDS011;37741;49.748;8.490;2023-04-06T14:13:07;10.05;;;5.75;;
51660;SDS011;37741;49.748;8.490;2023-04-06T14:15:33;6.70;;;5.18;;
51660;SDS011;37741;49.748;8.490;2023-04-06T14:17:59;8.68;;;6.93;;
51660;SDS011;37741;49.748;8.490;2023-04-06T14:20:25;9.10;;;5.47;;
51660;SDS011;37741;49.748;8.490;2023-04-06T14:22:51;6.97;;;4.78;;
51660;SDS011;37741;49.748;8.490;2023-04-06T14:25:17;6.45;;;4.68;;
51660;SDS011;37741;49.748;8.490;2023-04-06T14:27:43;6.88;;;4.72;;
51660;SDS011;37741;49.748;8.490;2023-04-06T14:30:09;7.60;;;4.95;;
51660;SDS011;37741;49.748;8.490;2023-04-06T14:32:35;7.68;;;5.28;;
51660;SDS011;37741;49.748;8.490;2023-04-06T14:35:02;7.60;;;5.30;;
51660;SDS011;37741;49.748;8.490;2023-04-06T14:37:29;6.72;;;4.80;;
51660;SDS011;37741;49.748;8.490;2023-04-06T14:39:55;8.13;;;5.25;;
51660;SDS011;37741;49.748;8.490;2023-04-06T14:42:20;6.95;;;4.63;;
51660;SDS011;37741;49.748;8.490;2023-04-06T14:44:46;5.95;;;4.45;;
51660;SDS011;37741;49.748;8.490;2023-04-06T14:47:13;5.82;;;4.10;;